KREO/REO METAR and TAF weather

Enter ICAO airport designator
Station Type Date Time Source
KREO METAR 2020/06/05 09:52 UTC NOAA

KREO 050952Z AUTO 14006KT 13/05 A2980 RMK AO1 SLP053 T01280050 $


Station Type Date Time Source
KREO Decoded METAR 2020/06/05 09:52 UTC NOAA

ROME, OR, United States (KREO) 42-35N 117-52W 1235M
Jun 05, 2020 - 05:52 AM EDT / 2020.06.05 0952 UTC
Wind: from the SE (140 degrees) at 7 MPH (6 KT):0
Temperature: 55.0 F (12.8 C)
Dew Point: 41.0 F (5.0 C)
Relative Humidity: 59%
Pressure (altimeter): 29.8 in. Hg (1009 hPa)
ob: KREO 050952Z AUTO 14006KT 13/05 A2980 RMK AO1 SLP053 T01280050
cycle: 10

Station Type Date Time Source
KREO TAF UTC NOAA

Error!

Example: see airport list